Runway excursion Incident Boeing 737-823 (WL) N991AN,
ASN logo
ASN Wikibase Occurrence # 351628
 
This information is added by users of ASN. Neither ASN nor the Flight Safety Foundation are responsible for the completeness or correctness of this information. If you feel this information is incomplete or incorrect, you can submit corrected information.

Date:Saturday 10 February 2024
Time:20:42
Type:Silhouette image of generic B738 model; specific model in this crash may look slightly different    
Boeing 737-823 (WL)
Owner/operator:American Airlines
Registration: N991AN
MSN: 30920/2945
Year of manufacture:2009
Fatalities:Fatalities: 0 / Occupants: 104
Aircraft damage: Unknown
Location:Dallas/Fort Worth International Airport, TX (DFW/KDFW) -   United States of America
Phase: Landing
Nature:Passenger - Scheduled
Departure airport:Washington-Ronald Reagan National Airport, DC (DCA/KDCA)
Destination airport:Dallas/Fort Worth International Airport, TX (DFW/KDFW)
Confidence Rating: Information is only available from news, social media or unofficial sources
Narrative:
American Airlines flight AA1632, a Boeing 737-823, suffered a runway overrun after landing on runway 17L at Dallas/Fort Worth International Airport, TX (DFW).
ADS-B data suggest that the aircraft touched down with about 1100 m of runway remaining with the aircraft coming to a stop in the runway end safety area (RESA).
The aircraft was towed away after about 90 minutes.

METAR:

Weather about the inciden time (0142Z, 11 Feb.)
KDFW 102353Z 09005KT 10SM SCT017 BKN040 BKN090 OVC250 13/10 A2982 RMK AO2 SLP093 60001 T01330100 10139 20117 53003
KDFW 110104Z 06005KT 10SM OVC017 13/10 A2982 RMK AO2 T01280100
KDFW 110153Z 06008KT 10SM OVC015 12/10 A2983 RMK AO2 SLP099 T01220100
KDFW 110104Z 06005KT 10SM OVC017 13/10 A2982 RMK AO2 T01280100
KDFW 110153Z 06008KT 10SM OVC015 12/10 A2983 RMK AO2 SLP099 T01220100
KDFW 110253Z 06009KT 10SM OVC014 12/10 A2983 RMK AO2 SLP100 T01220100 51006

Sources:

https://twitter.com/FlyingHighRyan/status/1756570834657759717
https://www.flightradar24.com/data/aircraft/n991an#33f3340d
https://globe.adsbexchange.com/?icao=add667&lat=32.875&lon=-97.010&zoom=20.0&showTrace=2024-02-11&trackLabels

Location

Revision history:

Date/timeContributorUpdates
11-Feb-2024 10:41 ASN Added
11-Feb-2024 10:42 ASN Updated [Location]
11-Feb-2024 10:47 ASN Updated [Date, Time, Aircraft type, Narrative]
11-Feb-2024 10:51 ASN Updated [Narrative, Category]
12-Feb-2024 07:35 fairchildbrad Updated [Total occupants, Narrative]

Corrections or additions? ... Edit this accident description

The Aviation Safety Network is an exclusive service provided by:
Quick Links:

CONNECT WITH US: FSF on social media FSF Facebook FSF Twitter FSF Youtube FSF LinkedIn FSF Instagram

©2024 Flight Safety Foundation

1920 Ballenger Av, 4th Fl.
Alexandria, Virginia 22314
www.FlightSafety.org